SBRF/REC METAR and TAF weather

Enter ICAO airport designator
Station Type Date Time Source
SBRF METAR 2021/09/24 05:00 UTC NOAA

SBRF 240500Z 14011KT 9999 SCT019 25/21 Q1014


Station Type Date Time Source
SBRF Decoded METAR 2021/09/24 05:00 UTC NOAA

Recife Aeroporto , Brazil (SBRF) 08-04S 034-51W
Sep 24, 2021 - 01:00 AM EDT / 2021.09.24 0500 UTC
Wind: from the SE (140 degrees) at 13 MPH (11 KT):0
Visibility: greater than 7 mile(s):0
Sky conditions: partly cloudy
Temperature: 77 F (25 C)
Dew Point: 69 F (21 C)
Relative Humidity: 78%
Pressure (altimeter): 29.94 in. Hg (1014 hPa)
ob: SBRF 240500Z 14011KT 9999 SCT019 25/21 Q1014
cycle: 5

Station Type Date Time Source
SBRF TAF 2021/09/24 06:27 UTC NOAA

TAF SBRF 240300Z 2406/2506 33006KT 9999 SCT020 TX29/2416Z TN25/2506Z
BECMG 2412/2414 13006KT
BECMG 2500/2502 02005KT BKN015
RMK PGY

Example: see airport list